sensor_id;sensor_type;location;lat;lon;timestamp;temperature;humidity
26909;DHT22;14477;51.038;4.588;2023-04-23T00:00:15;11.30;99.90
26909;DHT22;14477;51.038;4.588;2023-04-23T00:02:43;11.30;99.90
26909;DHT22;14477;51.038;4.588;2023-04-23T00:05:11;11.40;99.90
26909;DHT22;14477;51.038;4.588;2023-04-23T00:07:38;11.40;99.90
26909;DHT22;14477;51.038;4.588;2023-04-23T00:10:04;11.40;99.90
26909;DHT22;14477;51.038;4.588;2023-04-23T00:12:31;11.50;99.90
26909;DHT22;14477;51.038;4.588;2023-04-23T00:14:58;11.50;99.90
26909;DHT22;14477;51.038;4.588;2023-04-23T00:17:24;11.50;99.90
26909;DHT22;14477;51.038;4.588;2023-04-23T00:19:49;11.50;99.90
26909;DHT22;14477;51.038;4.588;2023-04-23T00:22:16;11.50;99.90
26909;DHT22;14477;51.038;4.588;2023-04-23T00:24:43;11.50;99.90
26909;DHT22;14477;51.038;4.588;2023-04-23T00:27:09;11.50;99.90
26909;DHT22;14477;51.038;4.588;2023-04-23T00:29:35;11.50;99.90
26909;DHT22;14477;51.038;4.588;2023-04-23T00:32:00;11.50;99.90
26909;DHT22;14477;51.038;4.588;2023-04-23T00:34:27;11.60;99.90
26909;DHT22;14477;51.038;4.588;2023-04-23T00:36:53;11.60;99.90
26909;DHT22;14477;51.038;4.588;2023-04-23T00:39:19;11.60;99.90
26909;DHT22;14477;51.038;4.588;2023-04-23T00:41:45;11.60;99.90
26909;DHT22;14477;51.038;4.588;2023-04-23T00:44:11;11.60;99.90
26909;DHT22;14477;51.038;4.588;2023-04-23T00:46:37;11.70;99.90
26909;DHT22;14477;51.038;4.588;2023-04-23T00:49:03;11.70;99.90
26909;DHT22;14477;51.038;4.588;2023-04-23T00:51:29;11.80;99.90
26909;DHT22;14477;51.038;4.588;2023-04-23T00:53:56;11.70;99.90
26909;DHT22;14477;51.038;4.588;2023-04-23T00:56:23;11.70;99.90
26909;DHT22;14477;51.038;4.588;2023-04-23T00:58:51;11.80;99.90
26909;DHT22;14477;51.038;4.588;2023-04-23T01:01:17;11.80;99.90
26909;DHT22;14477;51.038;4.588;2023-04-23T01:03:46;11.80;99.90
26909;DHT22;14477;51.038;4.588;2023-04-23T01:06:13;11.80;99.90
26909;DHT22;14477;51.038;4.588;2023-04-23T01:08:39;11.80;99.90
26909;DHT22;14477;51.038;4.588;2023-04-23T01:11:07;11.70;99.90
26909;DHT22;14477;51.038;4.588;2023-04-23T01:13:33;11.80;99.90
26909;DHT22;14477;51.038;4.588;2023-04-23T01:15:59;11.70;99.90
26909;DHT22;14477;51.038;4.588;2023-04-23T01:18:25;11.80;99.90
26909;DHT22;14477;51.038;4.588;2023-04-23T01:20:52;11.80;99.90
26909;DHT22;14477;51.038;4.588;2023-04-23T01:23:19;11.80;99.90
26909;DHT22;14477;51.038;4.588;2023-04-23T01:25:45;11.80;99.90
26909;DHT22;14477;51.038;4.588;2023-04-23T01:28:11;11.80;99.90
26909;DHT22;14477;51.038;4.588;2023-04-23T01:30:37;11.80;99.90
26909;DHT22;14477;51.038;4.588;2023-04-23T01:33:04;11.80;99.90
26909;DHT22;14477;51.038;4.588;2023-04-23T01:35:31;11.80;99.90
26909;DHT22;14477;51.038;4.588;2023-04-23T01:37:58;11.70;99.90
26909;DHT22;14477;51.038;4.588;2023-04-23T01:40:27;11.70;99.90
26909;DHT22;14477;51.038;4.588;2023-04-23T01:42:52;11.70;99.90
26909;DHT22;14477;51.038;4.588;2023-04-23T01:45:18;11.70;99.90
26909;DHT22;14477;51.038;4.588;2023-04-23T01:47:45;11.70;99.90
26909;DHT22;14477;51.038;4.588;2023-04-23T01:50:12;11.70;99.90
26909;DHT22;14477;51.038;4.588;2023-04-23T01:52:38;11.70;99.90
26909;DHT22;14477;51.038;4.588;2023-04-23T01:55:04;11.70;99.90
26909;DHT22;14477;51.038;4.588;2023-04-23T01:57:29;11.70;99.90
26909;DHT22;14477;51.038;4.588;2023-04-23T02:00:03;11.70;99.90
26909;DHT22;14477;51.038;4.588;2023-04-23T02:02:33;11.70;99.90
26909;DHT22;14477;51.038;4.588;2023-04-23T02:05:00;11.80;99.90
26909;DHT22;14477;51.038;4.588;2023-04-23T02:07:32;11.80;99.90
26909;DHT22;14477;51.038;4.588;2023-04-23T02:09:59;11.80;99.90
26909;DHT22;14477;51.038;4.588;2023-04-23T02:12:24;11.90;99.90
26909;DHT22;14477;51.038;4.588;2023-04-23T02:14:51;11.90;99.90
26909;DHT22;14477;51.038;4.588;2023-04-23T02:17:18;11.90;99.90
26909;DHT22;14477;51.038;4.588;2023-04-23T02:19:44;11.90;99.90
26909;DHT22;14477;51.038;4.588;2023-04-23T02:22:10;12.00;99.90
26909;DHT22;14477;51.038;4.588;2023-04-23T02:24:36;12.00;99.90
26909;DHT22;14477;51.038;4.588;2023-04-23T02:27:03;12.00;99.90
26909;DHT22;14477;51.038;4.588;2023-04-23T02:29:29;12.00;99.90
26909;DHT22;14477;51.038;4.588;2023-04-23T02:31:55;12.00;99.90
26909;DHT22;14477;51.038;4.588;2023-04-23T02:34:21;12.00;99.90
26909;DHT22;14477;51.038;4.588;2023-04-23T02:36:46;12.00;99.90
26909;DHT22;14477;51.038;4.588;2023-04-23T02:39:12;12.00;99.90
26909;DHT22;14477;51.038;4.588;2023-04-23T02:41:38;12.00;99.90
26909;DHT22;14477;51.038;4.588;2023-04-23T02:44:03;11.90;99.90
26909;DHT22;14477;51.038;4.588;2023-04-23T02:46:29;11.90;99.90
26909;DHT22;14477;51.038;4.588;2023-04-23T02:48:56;11.90;99.90
26909;DHT22;14477;51.038;4.588;2023-04-23T02:51:22;11.90;99.90
26909;DHT22;14477;51.038;4.588;2023-04-23T02:53:47;11.80;99.90
26909;DHT22;14477;51.038;4.588;2023-04-23T02:56:13;11.80;99.90
26909;DHT22;14477;51.038;4.588;2023-04-23T02:58:39;11.70;99.90
26909;DHT22;14477;51.038;4.588;2023-04-23T03:01:05;11.70;99.90
26909;DHT22;14477;51.038;4.588;2023-04-23T03:03:32;11.70;99.90
26909;DHT22;14477;51.038;4.588;2023-04-23T03:05:59;11.60;99.90
26909;DHT22;14477;51.038;4.588;2023-04-23T03:08:25;11.60;99.90
26909;DHT22;14477;51.038;4.588;2023-04-23T03:10:51;11.60;99.90
26909;DHT22;14477;51.038;4.588;2023-04-23T03:13:16;11.50;99.90
26909;DHT22;14477;51.038;4.588;2023-04-23T03:15:42;11.50;99.90
26909;DHT22;14477;51.038;4.588;2023-04-23T03:18:08;11.40;99.90
26909;DHT22;14477;51.038;4.588;2023-04-23T03:20:34;11.40;99.90
26909;DHT22;14477;51.038;4.588;2023-04-23T03:23:00;11.40;99.90
26909;DHT22;14477;51.038;4.588;2023-04-23T03:25:26;11.30;99.90
26909;DHT22;14477;51.038;4.588;2023-04-23T03:27:53;11.30;99.90
26909;DHT22;14477;51.038;4.588;2023-04-23T03:30:19;11.30;99.90
26909;DHT22;14477;51.038;4.588;2023-04-23T03:32:45;11.20;99.90
26909;DHT22;14477;51.038;4.588;2023-04-23T03:35:12;11.20;99.90
26909;DHT22;14477;51.038;4.588;2023-04-23T03:37:37;11.20;99.90
26909;DHT22;14477;51.038;4.588;2023-04-23T03:40:03;11.10;99.90
26909;DHT22;14477;51.038;4.588;2023-04-23T03:42:32;11.10;99.90
26909;DHT22;14477;51.038;4.588;2023-04-23T03:44:59;11.10;99.90
26909;DHT22;14477;51.038;4.588;2023-04-23T03:47:25;11.00;99.90
26909;DHT22;14477;51.038;4.588;2023-04-23T03:49:52;11.00;99.90
26909;DHT22;14477;51.038;4.588;2023-04-23T03:52:17;11.00;99.90
26909;DHT22;14477;51.038;4.588;2023-04-23T03:54:43;11.00;99.90
26909;DHT22;14477;51.038;4.588;2023-04-23T03:57:09;10.90;99.90
26909;DHT22;14477;51.038;4.588;2023-04-23T03:59:36;10.90;99.90
26909;DHT22;14477;51.038;4.588;2023-04-23T04:02:02;10.90;99.90
26909;DHT22;14477;51.038;4.588;2023-04-23T04:04:31;10.90;99.90
26909;DHT22;14477;51.038;4.588;2023-04-23T04:06:58;10.90;99.90
26909;DHT22;14477;51.038;4.588;2023-04-23T04:09:27;10.80;99.90
26909;DHT22;14477;51.038;4.588;2023-04-23T04:11:53;10.80;99.90
26909;DHT22;14477;51.038;4.588;2023-04-23T04:14:20;10.80;99.90
26909;DHT22;14477;51.038;4.588;2023-04-23T04:16:45;10.70;99.90
26909;DHT22;14477;51.038;4.588;2023-04-23T04:19:11;10.70;99.90
26909;DHT22;14477;51.038;4.588;2023-04-23T04:21:37;10.70;99.90
26909;DHT22;14477;51.038;4.588;2023-04-23T04:24:03;10.60;99.90
26909;DHT22;14477;51.038;4.588;2023-04-23T04:26:30;10.60;99.90
26909;DHT22;14477;51.038;4.588;2023-04-23T04:29:01;10.60;99.90
26909;DHT22;14477;51.038;4.588;2023-04-23T04:31:27;10.60;99.90
26909;DHT22;14477;51.038;4.588;2023-04-23T04:33:54;10.60;99.90
26909;DHT22;14477;51.038;4.588;2023-04-23T04:36:20;10.60;99.90
26909;DHT22;14477;51.038;4.588;2023-04-23T04:38:46;10.60;99.90
26909;DHT22;14477;51.038;4.588;2023-04-23T04:41:12;10.60;99.90
26909;DHT22;14477;51.038;4.588;2023-04-23T04:43:39;10.60;99.90
26909;DHT22;14477;51.038;4.588;2023-04-23T04:46:05;10.60;99.90
26909;DHT22;14477;51.038;4.588;2023-04-23T04:48:31;10.60;99.90
26909;DHT22;14477;51.038;4.588;2023-04-23T04:50:57;10.60;99.90
26909;DHT22;14477;51.038;4.588;2023-04-23T04:53:23;10.60;99.90
26909;DHT22;14477;51.038;4.588;2023-04-23T04:55:49;10.60;99.90
26909;DHT22;14477;51.038;4.588;2023-04-23T04:58:15;10.60;99.90
26909;DHT22;14477;51.038;4.588;2023-04-23T05:00:41;10.70;99.90
26909;DHT22;14477;51.038;4.588;2023-04-23T05:03:06;10.60;99.90
26909;DHT22;14477;51.038;4.588;2023-04-23T05:05:33;10.70;99.90
26909;DHT22;14477;51.038;4.588;2023-04-23T05:07:59;10.70;99.90
26909;DHT22;14477;51.038;4.588;2023-04-23T05:10:27;10.70;99.90
26909;DHT22;14477;51.038;4.588;2023-04-23T05:12:55;10.70;99.90
26909;DHT22;14477;51.038;4.588;2023-04-23T05:15:21;10.70;99.90
26909;DHT22;14477;51.038;4.588;2023-04-23T05:17:47;10.70;99.90
26909;DHT22;14477;51.038;4.588;2023-04-23T05:20:14;10.80;99.90
26909;DHT22;14477;51.038;4.588;2023-04-23T05:22:41;10.70;99.90
26909;DHT22;14477;51.038;4.588;2023-04-23T05:25:08;10.80;99.90
26909;DHT22;14477;51.038;4.588;2023-04-23T05:27:35;10.80;99.90
26909;DHT22;14477;51.038;4.588;2023-04-23T05:30:05;10.80;99.90
26909;DHT22;14477;51.038;4.588;2023-04-23T05:32:32;10.80;99.90
26909;DHT22;14477;51.038;4.588;2023-04-23T05:34:58;10.90;99.90
26909;DHT22;14477;51.038;4.588;2023-04-23T05:37:28;10.90;99.90
26909;DHT22;14477;51.038;4.588;2023-04-23T05:39:53;10.90;99.90
26909;DHT22;14477;51.038;4.588;2023-04-23T05:42:20;11.00;99.90
26909;DHT22;14477;51.038;4.588;2023-04-23T05:44:46;11.00;99.90
26909;DHT22;14477;51.038;4.588;2023-04-23T05:47:13;11.10;99.90
26909;DHT22;14477;51.038;4.588;2023-04-23T05:49:38;11.20;99.90
26909;DHT22;14477;51.038;4.588;2023-04-23T05:52:04;11.20;99.90
26909;DHT22;14477;51.038;4.588;2023-04-23T05:54:30;11.20;99.90
26909;DHT22;14477;51.038;4.588;2023-04-23T05:56:56;11.30;99.90
26909;DHT22;14477;51.038;4.588;2023-04-23T05:59:22;11.40;99.90
26909;DHT22;14477;51.038;4.588;2023-04-23T06:01:48;11.50;99.90
26909;DHT22;14477;51.038;4.588;2023-04-23T06:04:15;11.50;99.90
26909;DHT22;14477;51.038;4.588;2023-04-23T06:06:41;11.60;99.90
26909;DHT22;14477;51.038;4.588;2023-04-23T06:09:07;11.70;99.90
26909;DHT22;14477;51.038;4.588;2023-04-23T06:11:33;11.80;99.90
26909;DHT22;14477;51.038;4.588;2023-04-23T06:14:01;11.90;99.90
26909;DHT22;14477;51.038;4.588;2023-04-23T06:16:27;12.10;99.90
26909;DHT22;14477;51.038;4.588;2023-04-23T06:18:52;12.20;99.90
26909;DHT22;14477;51.038;4.588;2023-04-23T06:21:21;12.30;99.90
26909;DHT22;14477;51.038;4.588;2023-04-23T06:23:47;12.40;99.90
26909;DHT22;14477;51.038;4.588;2023-04-23T06:26:13;12.50;99.90
26909;DHT22;14477;51.038;4.588;2023-04-23T06:28:43;12.60;99.90
26909;DHT22;14477;51.038;4.588;2023-04-23T06:31:09;12.70;99.90
26909;DHT22;14477;51.038;4.588;2023-04-23T06:33:35;12.80;99.90
26909;DHT22;14477;51.038;4.588;2023-04-23T06:36:04;12.80;99.90
26909;DHT22;14477;51.038;4.588;2023-04-23T06:38:31;12.90;99.90
26909;DHT22;14477;51.038;4.588;2023-04-23T06:40:56;13.00;99.90
26909;DHT22;14477;51.038;4.588;2023-04-23T06:43:23;13.10;99.90
26909;DHT22;14477;51.038;4.588;2023-04-23T06:45:48;13.20;99.90
26909;DHT22;14477;51.038;4.588;2023-04-23T06:48:14;13.30;99.90
26909;DHT22;14477;51.038;4.588;2023-04-23T06:50:41;13.40;99.90
26909;DHT22;14477;51.038;4.588;2023-04-23T06:53:07;13.50;99.90
26909;DHT22;14477;51.038;4.588;2023-04-23T06:55:32;13.60;99.90
26909;DHT22;14477;51.038;4.588;2023-04-23T06:57:58;13.70;99.90
26909;DHT22;14477;51.038;4.588;2023-04-23T07:00:24;13.80;99.90
26909;DHT22;14477;51.038;4.588;2023-04-23T07:02:50;13.90;99.90
26909;DHT22;14477;51.038;4.588;2023-04-23T07:05:17;14.00;99.90
26909;DHT22;14477;51.038;4.588;2023-04-23T07:07:43;14.20;99.90
26909;DHT22;14477;51.038;4.588;2023-04-23T07:10:10;14.40;99.90
26909;DHT22;14477;51.038;4.588;2023-04-23T07:12:37;14.70;99.90
26909;DHT22;14477;51.038;4.588;2023-04-23T07:15:03;15.00;99.90
26909;DHT22;14477;51.038;4.588;2023-04-23T07:17:29;15.40;99.90
26909;DHT22;14477;51.038;4.588;2023-04-23T07:19:55;15.60;99.90
26909;DHT22;14477;51.038;4.588;2023-04-23T07:22:23;15.90;99.90
26909;DHT22;14477;51.038;4.588;2023-04-23T07:24:48;16.20;99.90
26909;DHT22;14477;51.038;4.588;2023-04-23T07:27:14;16.40;99.90
26909;DHT22;14477;51.038;4.588;2023-04-23T07:29:40;16.70;99.90
26909;DHT22;14477;51.038;4.588;2023-04-23T07:32:06;16.90;99.90
26909;DHT22;14477;51.038;4.588;2023-04-23T07:34:31;17.10;99.90
26909;DHT22;14477;51.038;4.588;2023-04-23T07:36:57;17.30;99.90
26909;DHT22;14477;51.038;4.588;2023-04-23T07:39:24;17.50;99.90
26909;DHT22;14477;51.038;4.588;2023-04-23T07:41:50;17.70;99.90
26909;DHT22;14477;51.038;4.588;2023-04-23T07:44:15;17.90;99.90
26909;DHT22;14477;51.038;4.588;2023-04-23T07:46:41;18.10;99.90
26909;DHT22;14477;51.038;4.588;2023-04-23T07:49:07;18.40;99.90
26909;DHT22;14477;51.038;4.588;2023-04-23T07:51:33;18.60;99.90
26909;DHT22;14477;51.038;4.588;2023-04-23T07:53:59;18.80;99.90
26909;DHT22;14477;51.038;4.588;2023-04-23T07:56:24;19.10;99.90
26909;DHT22;14477;51.038;4.588;2023-04-23T07:58:50;19.30;99.90
26909;DHT22;14477;51.038;4.588;2023-04-23T08:01:18;19.60;99.90
26909;DHT22;14477;51.038;4.588;2023-04-23T08:03:44;19.80;99.90
26909;DHT22;14477;51.038;4.588;2023-04-23T08:06:10;20.10;99.90
26909;DHT22;14477;51.038;4.588;2023-04-23T08:08:39;20.30;99.90
26909;DHT22;14477;51.038;4.588;2023-04-23T08:11:05;20.50;99.90
26909;DHT22;14477;51.038;4.588;2023-04-23T08:13:31;20.80;99.90
26909;DHT22;14477;51.038;4.588;2023-04-23T08:15:57;21.00;99.90
26909;DHT22;14477;51.038;4.588;2023-04-23T08:18:23;21.20;99.90
26909;DHT22;14477;51.038;4.588;2023-04-23T08:20:49;21.30;99.90
26909;DHT22;14477;51.038;4.588;2023-04-23T08:23:15;21.50;99.90
26909;DHT22;14477;51.038;4.588;2023-04-23T08:25:41;21.70;99.90
26909;DHT22;14477;51.038;4.588;2023-04-23T08:28:06;21.80;99.90
26909;DHT22;14477;51.038;4.588;2023-04-23T08:30:32;21.80;99.90
26909;DHT22;14477;51.038;4.588;2023-04-23T08:32:58;21.90;99.90
26909;DHT22;14477;51.038;4.588;2023-04-23T08:35:24;21.90;99.90
26909;DHT22;14477;51.038;4.588;2023-04-23T08:37:50;22.00;99.90
26909;DHT22;14477;51.038;4.588;2023-04-23T08:40:16;22.00;99.90
26909;DHT22;14477;51.038;4.588;2023-04-23T08:42:45;22.00;99.90
26909;DHT22;14477;51.038;4.588;2023-04-23T08:45:13;22.00;99.90
26909;DHT22;14477;51.038;4.588;2023-04-23T08:47:42;22.00;99.90
26909;DHT22;14477;51.038;4.588;2023-04-23T08:50:16;22.00;99.30
26909;DHT22;14477;51.038;4.588;2023-04-23T08:52:49;21.90;98.50
26909;DHT22;14477;51.038;4.588;2023-04-23T08:55:17;21.80;98.40
26909;DHT22;14477;51.038;4.588;2023-04-23T08:57:45;21.70;99.80
26909;DHT22;14477;51.038;4.588;2023-04-23T09:00:11;21.60;99.80
26909;DHT22;14477;51.038;4.588;2023-04-23T09:02:43;21.60;99.30
26909;DHT22;14477;51.038;4.588;2023-04-23T09:05:10;21.40;98.30
26909;DHT22;14477;51.038;4.588;2023-04-23T09:07:36;21.30;99.40
26909;DHT22;14477;51.038;4.588;2023-04-23T09:10:04;21.20;99.10
26909;DHT22;14477;51.038;4.588;2023-04-23T09:12:31;21.00;99.30
26909;DHT22;14477;51.038;4.588;2023-04-23T09:14:57;21.00;99.50
26909;DHT22;14477;51.038;4.588;2023-04-23T09:17:27;20.90;99.90
26909;DHT22;14477;51.038;4.588;2023-04-23T09:19:54;20.80;99.90
26909;DHT22;14477;51.038;4.588;2023-04-23T09:22:39;20.80;99.90
26909;DHT22;14477;51.038;4.588;2023-04-23T09:25:09;20.70;98.60
26909;DHT22;14477;51.038;4.588;2023-04-23T09:27:36;20.70;99.70
26909;DHT22;14477;51.038;4.588;2023-04-23T09:30:07;20.60;99.90
26909;DHT22;14477;51.038;4.588;2023-04-23T09:32:35;20.50;99.40
26909;DHT22;14477;51.038;4.588;2023-04-23T09:35:02;20.50;99.90
26909;DHT22;14477;51.038;4.588;2023-04-23T09:37:29;20.40;99.90
26909;DHT22;14477;51.038;4.588;2023-04-23T09:40:00;20.50;99.90
26909;DHT22;14477;51.038;4.588;2023-04-23T09:42:29;20.50;99.90
26909;DHT22;14477;51.038;4.588;2023-04-23T09:47:54;20.70;99.90
26909;DHT22;14477;51.038;4.588;2023-04-23T09:50:19;20.90;99.90
26909;DHT22;14477;51.038;4.588;2023-04-23T09:52:55;21.10;99.90
26909;DHT22;14477;51.038;4.588;2023-04-23T09:55:32;21.20;99.90
26909;DHT22;14477;51.038;4.588;2023-04-23T09:58:03;21.30;99.60
26909;DHT22;14477;51.038;4.588;2023-04-23T10:00:37;21.40;99.90
26909;DHT22;14477;51.038;4.588;2023-04-23T10:03:04;21.40;99.50
26909;DHT22;14477;51.038;4.588;2023-04-23T10:05:31;21.40;99.90
26909;DHT22;14477;51.038;4.588;2023-04-23T10:10:37;21.40;99.50
26909;DHT22;14477;51.038;4.588;2023-04-23T10:13:03;21.40;99.90
26909;DHT22;14477;51.038;4.588;2023-04-23T10:15:29;21.40;99.90
26909;DHT22;14477;51.038;4.588;2023-04-23T10:17:55;21.30;99.90
26909;DHT22;14477;51.038;4.588;2023-04-23T10:20:22;21.30;99.90
26909;DHT22;14477;51.038;4.588;2023-04-23T10:22:48;21.30;99.90
26909;DHT22;14477;51.038;4.588;2023-04-23T10:25:14;21.30;99.90
26909;DHT22;14477;51.038;4.588;2023-04-23T10:27:42;21.30;99.90
26909;DHT22;14477;51.038;4.588;2023-04-23T10:30:09;21.30;99.90
26909;DHT22;14477;51.038;4.588;2023-04-23T10:32:36;21.30;99.80
26909;DHT22;14477;51.038;4.588;2023-04-23T10:35:07;21.20;98.80
26909;DHT22;14477;51.038;4.588;2023-04-23T10:37:34;21.00;98.70
26909;DHT22;14477;51.038;4.588;2023-04-23T10:40:18;21.00;98.80
26909;DHT22;14477;51.038;4.588;2023-04-23T10:42:46;20.80;97.50
26909;DHT22;14477;51.038;4.588;2023-04-23T10:47:40;20.50;98.50
26909;DHT22;14477;51.038;4.588;2023-04-23T10:52:47;20.30;98.30
26909;DHT22;14477;51.038;4.588;2023-04-23T10:55:18;20.30;99.70
26909;DHT22;14477;51.038;4.588;2023-04-23T11:00:28;20.30;98.30
26909;DHT22;14477;51.038;4.588;2023-04-23T11:02:56;20.30;99.50
26909;DHT22;14477;51.038;4.588;2023-04-23T11:05:22;20.30;99.20
26909;DHT22;14477;51.038;4.588;2023-04-23T11:08:06;20.40;99.90
26909;DHT22;14477;51.038;4.588;2023-04-23T11:10:32;20.50;98.50
26909;DHT22;14477;51.038;4.588;2023-04-23T11:13:18;20.60;99.90
26909;DHT22;14477;51.038;4.588;2023-04-23T11:15:45;20.60;99.00
26909;DHT22;14477;51.038;4.588;2023-04-23T11:18:11;20.70;99.20
26909;DHT22;14477;51.038;4.588;2023-04-23T11:20:37;20.70;99.20
26909;DHT22;14477;51.038;4.588;2023-04-23T11:23:04;20.70;99.60
26909;DHT22;14477;51.038;4.588;2023-04-23T11:25:31;20.80;99.70
26909;DHT22;14477;51.038;4.588;2023-04-23T11:27:57;20.80;98.80
26909;DHT22;14477;51.038;4.588;2023-04-23T11:30:24;20.70;97.60
26909;DHT22;14477;51.038;4.588;2023-04-23T11:32:51;20.70;98.10
26909;DHT22;14477;51.038;4.588;2023-04-23T11:35:22;20.70;97.70
26909;DHT22;14477;51.038;4.588;2023-04-23T11:37:49;20.70;98.40
26909;DHT22;14477;51.038;4.588;2023-04-23T11:40:18;20.80;99.00
26909;DHT22;14477;51.038;4.588;2023-04-23T11:42:52;20.80;98.00
26909;DHT22;14477;51.038;4.588;2023-04-23T11:45:28;20.90;98.00
26909;DHT22;14477;51.038;4.588;2023-04-23T11:47:56;21.00;96.90
26909;DHT22;14477;51.038;4.588;2023-04-23T11:50:24;21.00;98.10
26909;DHT22;14477;51.038;4.588;2023-04-23T11:52:50;21.00;97.80
26909;DHT22;14477;51.038;4.588;2023-04-23T11:55:18;21.00;97.60
26909;DHT22;14477;51.038;4.588;2023-04-23T11:57:45;21.00;97.30
26909;DHT22;14477;51.038;4.588;2023-04-23T12:00:22;21.00;97.10
26909;DHT22;14477;51.038;4.588;2023-04-23T12:02:59;21.00;96.00
26909;DHT22;14477;51.038;4.588;2023-04-23T12:05:33;21.00;95.00
26909;DHT22;14477;51.038;4.588;2023-04-23T12:08:10;21.00;95.60
26909;DHT22;14477;51.038;4.588;2023-04-23T12:10:59;21.00;95.60
26909;DHT22;14477;51.038;4.588;2023-04-23T12:13:29;21.00;96.60
26909;DHT22;14477;51.038;4.588;2023-04-23T12:15:58;21.00;96.70
26909;DHT22;14477;51.038;4.588;2023-04-23T12:18:28;21.10;96.90
26909;DHT22;14477;51.038;4.588;2023-04-23T12:20:56;21.00;95.60
26909;DHT22;14477;51.038;4.588;2023-04-23T12:23:28;21.00;96.00
26909;DHT22;14477;51.038;4.588;2023-04-23T12:25:54;20.80;95.10
26909;DHT22;14477;51.038;4.588;2023-04-23T12:28:24;20.70;94.40
26909;DHT22;14477;51.038;4.588;2023-04-23T12:30:52;20.50;94.30
26909;DHT22;14477;51.038;4.588;2023-04-23T12:33:17;20.30;94.10
26909;DHT22;14477;51.038;4.588;2023-04-23T12:35:54;20.10;94.20
26909;DHT22;14477;51.038;4.588;2023-04-23T12:38:26;19.90;93.00
26909;DHT22;14477;51.038;4.588;2023-04-23T12:40:54;19.70;93.40
26909;DHT22;14477;51.038;4.588;2023-04-23T12:43:20;19.50;93.30
26909;DHT22;14477;51.038;4.588;2023-04-23T12:45:46;19.30;93.10
26909;DHT22;14477;51.038;4.588;2023-04-23T12:48:12;19.00;93.40
26909;DHT22;14477;51.038;4.588;2023-04-23T12:50:38;18.70;93.60
26909;DHT22;14477;51.038;4.588;2023-04-23T12:53:04;18.40;93.90
26909;DHT22;14477;51.038;4.588;2023-04-23T12:55:30;18.20;94.30
26909;DHT22;14477;51.038;4.588;2023-04-23T12:57:57;17.90;94.50
26909;DHT22;14477;51.038;4.588;2023-04-23T13:00:23;17.70;94.90
26909;DHT22;14477;51.038;4.588;2023-04-23T13:02:48;17.50;94.90
26909;DHT22;14477;51.038;4.588;2023-04-23T13:05:14;17.30;95.40
26909;DHT22;14477;51.038;4.588;2023-04-23T13:07:40;17.10;95.70
26909;DHT22;14477;51.038;4.588;2023-04-23T13:10:07;17.00;95.90
26909;DHT22;14477;51.038;4.588;2023-04-23T13:12:33;16.80;96.10
26909;DHT22;14477;51.038;4.588;2023-04-23T13:14:58;16.70;96.50
26909;DHT22;14477;51.038;4.588;2023-04-23T13:17:24;16.60;96.70
26909;DHT22;14477;51.038;4.588;2023-04-23T13:19:51;16.50;97.10
26909;DHT22;14477;51.038;4.588;2023-04-23T13:22:17;16.40;97.30
26909;DHT22;14477;51.038;4.588;2023-04-23T13:24:43;16.30;97.40
26909;DHT22;14477;51.038;4.588;2023-04-23T13:27:09;16.30;97.60
26909;DHT22;14477;51.038;4.588;2023-04-23T13:29:35;16.20;97.80
26909;DHT22;14477;51.038;4.588;2023-04-23T13:32:02;16.10;98.00
26909;DHT22;14477;51.038;4.588;2023-04-23T13:34:28;16.00;98.40
26909;DHT22;14477;51.038;4.588;2023-04-23T13:36:55;16.00;98.50
26909;DHT22;14477;51.038;4.588;2023-04-23T13:39:22;16.00;98.70
26909;DHT22;14477;51.038;4.588;2023-04-23T13:41:48;16.00;98.90
26909;DHT22;14477;51.038;4.588;2023-04-23T13:44:14;16.00;99.10
26909;DHT22;14477;51.038;4.588;2023-04-23T13:46:41;15.90;99.30
26909;DHT22;14477;51.038;4.588;2023-04-23T13:49:07;16.00;99.30
26909;DHT22;14477;51.038;4.588;2023-04-23T13:51:32;15.90;99.30
26909;DHT22;14477;51.038;4.588;2023-04-23T13:53:58;15.90;99.50
26909;DHT22;14477;51.038;4.588;2023-04-23T13:56:25;15.90;99.60
26909;DHT22;14477;51.038;4.588;2023-04-23T13:58:51;15.90;99.90
26909;DHT22;14477;51.038;4.588;2023-04-23T14:01:18;15.90;99.80
26909;DHT22;14477;51.038;4.588;2023-04-23T14:03:43;15.90;99.80
26909;DHT22;14477;51.038;4.588;2023-04-23T14:06:09;15.90;99.90
26909;DHT22;14477;51.038;4.588;2023-04-23T14:08:36;16.00;99.90
26909;DHT22;14477;51.038;4.588;2023-04-23T14:11:02;16.00;99.90
26909;DHT22;14477;51.038;4.588;2023-04-23T14:13:29;16.00;99.90
26909;DHT22;14477;51.038;4.588;2023-04-23T14:15:55;16.00;99.90
26909;DHT22;14477;51.038;4.588;2023-04-23T14:18:21;16.00;99.90
26909;DHT22;14477;51.038;4.588;2023-04-23T14:20:47;15.90;99.90
26909;DHT22;14477;51.038;4.588;2023-04-23T14:26:03;16.00;99.90
26909;DHT22;14477;51.038;4.588;2023-04-23T14:30:55;15.90;99.90
26909;DHT22;14477;51.038;4.588;2023-04-23T14:33:22;15.90;99.90
26909;DHT22;14477;51.038;4.588;2023-04-23T14:35:48;15.80;99.90
26909;DHT22;14477;51.038;4.588;2023-04-23T14:38:13;15.80;99.90
26909;DHT22;14477;51.038;4.588;2023-04-23T14:40:39;15.80;99.90
26909;DHT22;14477;51.038;4.588;2023-04-23T14:43:05;15.80;99.90
26909;DHT22;14477;51.038;4.588;2023-04-23T14:45:31;15.70;99.90
26909;DHT22;14477;51.038;4.588;2023-04-23T14:47:58;15.80;99.90
26909;DHT22;14477;51.038;4.588;2023-04-23T14:50:23;15.80;99.90
26909;DHT22;14477;51.038;4.588;2023-04-23T14:52:49;15.80;99.90
26909;DHT22;14477;51.038;4.588;2023-04-23T14:55:16;15.90;99.90
26909;DHT22;14477;51.038;4.588;2023-04-23T14:57:42;15.90;99.90
26909;DHT22;14477;51.038;4.588;2023-04-23T15:00:09;16.00;99.90
26909;DHT22;14477;51.038;4.588;2023-04-23T15:02:41;16.00;99.90
26909;DHT22;14477;51.038;4.588;2023-04-23T15:05:10;16.10;99.90
26909;DHT22;14477;51.038;4.588;2023-04-23T15:07:36;16.20;99.90
26909;DHT22;14477;51.038;4.588;2023-04-23T15:10:03;16.20;99.90
26909;DHT22;14477;51.038;4.588;2023-04-23T15:15:05;16.20;99.90
26909;DHT22;14477;51.038;4.588;2023-04-23T15:17:38;16.30;99.90
26909;DHT22;14477;51.038;4.588;2023-04-23T15:20:04;16.30;99.90
26909;DHT22;14477;51.038;4.588;2023-04-23T15:22:30;16.30;99.90
26909;DHT22;14477;51.038;4.588;2023-04-23T15:24:56;16.30;99.90
26909;DHT22;14477;51.038;4.588;2023-04-23T15:27:22;16.30;99.90
26909;DHT22;14477;51.038;4.588;2023-04-23T15:29:49;16.30;99.90
26909;DHT22;14477;51.038;4.588;2023-04-23T15:32:15;16.30;99.90
26909;DHT22;14477;51.038;4.588;2023-04-23T15:34:41;16.40;99.90
26909;DHT22;14477;51.038;4.588;2023-04-23T15:37:07;16.50;99.90
26909;DHT22;14477;51.038;4.588;2023-04-23T15:39:32;16.50;99.90
26909;DHT22;14477;51.038;4.588;2023-04-23T15:41:58;16.60;99.90
26909;DHT22;14477;51.038;4.588;2023-04-23T15:44:24;16.60;99.90
26909;DHT22;14477;51.038;4.588;2023-04-23T15:46:51;16.70;99.90
26909;DHT22;14477;51.038;4.588;2023-04-23T15:49:16;16.70;99.90